sensor_id;sensor_type;location;lat;lon;timestamp;pressure;altitude;pressure_sealevel;temperature;humidity
22862;BME280;11598;50.652;6.172;2022-11-15T00:01:48;95790.56;;;9.19;100.00
22862;BME280;11598;50.652;6.172;2022-11-15T00:11:51;95787.03;;;9.20;100.00
22862;BME280;11598;50.652;6.172;2022-11-15T00:21:51;95778.00;;;9.03;100.00
22862;BME280;11598;50.652;6.172;2022-11-15T00:31:52;95769.66;;;9.00;100.00
22862;BME280;11598;50.652;6.172;2022-11-15T00:41:52;95759.38;;;8.98;100.00
22862;BME280;11598;50.652;6.172;2022-11-15T00:51:53;95757.88;;;8.96;100.00
22862;BME280;11598;50.652;6.172;2022-11-15T01:01:53;95746.34;;;8.88;100.00
22862;BME280;11598;50.652;6.172;2022-11-15T01:11:53;95753.81;;;8.82;100.00
22862;BME280;11598;50.652;6.172;2022-11-15T01:21:54;95747.44;;;8.75;100.00
22862;BME280;11598;50.652;6.172;2022-11-15T01:31:54;95734.03;;;8.70;100.00
22862;BME280;11598;50.652;6.172;2022-11-15T01:41:54;95727.56;;;8.64;100.00
22862;BME280;11598;50.652;6.172;2022-11-15T01:51:55;95715.53;;;8.74;100.00
22862;BME280;11598;50.652;6.172;2022-11-15T02:01:56;95708.59;;;8.75;100.00
22862;BME280;11598;50.652;6.172;2022-11-15T02:11:58;95692.69;;;8.79;100.00
22862;BME280;11598;50.652;6.172;2022-11-15T02:32:37;95697.59;;;8.94;100.00
22862;BME280;11598;50.652;6.172;2022-11-15T02:42:46;95698.75;;;9.01;100.00
22862;BME280;11598;50.652;6.172;2022-11-15T02:53:08;95680.13;;;9.07;100.00
22862;BME280;11598;50.652;6.172;2022-11-15T03:03:22;95681.19;;;9.04;100.00
22862;BME280;11598;50.652;6.172;2022-11-15T03:23:33;95673.91;;;8.98;100.00
22862;BME280;11598;50.652;6.172;2022-11-15T03:33:36;95662.84;;;8.96;100.00
22862;BME280;11598;50.652;6.172;2022-11-15T03:43:52;95653.09;;;8.88;100.00
22862;BME280;11598;50.652;6.172;2022-11-15T03:53:53;95649.25;;;8.83;100.00
22862;BME280;11598;50.652;6.172;2022-11-15T04:03:54;95660.66;;;8.80;100.00
22862;BME280;11598;50.652;6.172;2022-11-15T04:13:54;95670.03;;;8.93;100.00
22862;BME280;11598;50.652;6.172;2022-11-15T04:23:54;95665.44;;;8.96;100.00
22862;BME280;11598;50.652;6.172;2022-11-15T04:34:13;95663.34;;;8.90;100.00
22862;BME280;11598;50.652;6.172;2022-11-15T04:44:13;95674.19;;;8.84;100.00
22862;BME280;11598;50.652;6.172;2022-11-15T04:54:14;95662.81;;;8.75;100.00
22862;BME280;11598;50.652;6.172;2022-11-15T05:04:14;95658.94;;;8.58;100.00
22862;BME280;11598;50.652;6.172;2022-11-15T05:14:21;95649.56;;;8.35;100.00
22862;BME280;11598;50.652;6.172;2022-11-15T05:24:22;95667.47;;;8.26;100.00
22862;BME280;11598;50.652;6.172;2022-11-15T05:34:23;95659.69;;;8.15;100.00
22862;BME280;11598;50.652;6.172;2022-11-15T05:44:25;95675.13;;;8.05;100.00
22862;BME280;11598;50.652;6.172;2022-11-15T05:54:26;95664.31;;;8.00;100.00
22862;BME280;11598;50.652;6.172;2022-11-15T06:04:27;95675.56;;;7.99;100.00
22862;BME280;11598;50.652;6.172;2022-11-15T06:14:27;95682.66;;;7.97;100.00
22862;BME280;11598;50.652;6.172;2022-11-15T06:24:28;95680.16;;;7.96;100.00
22862;BME280;11598;50.652;6.172;2022-11-15T06:34:28;95683.34;;;7.77;100.00
22862;BME280;11598;50.652;6.172;2022-11-15T06:44:28;95694.94;;;7.60;100.00
22862;BME280;11598;50.652;6.172;2022-11-15T06:54:29;95684.72;;;7.58;100.00
22862;BME280;11598;50.652;6.172;2022-11-15T07:04:29;95706.31;;;7.46;100.00
22862;BME280;11598;50.652;6.172;2022-11-15T07:14:29;95714.28;;;7.43;100.00
22862;BME280;11598;50.652;6.172;2022-11-15T07:24:30;95714.50;;;7.40;100.00
22862;BME280;11598;50.652;6.172;2022-11-15T07:34:30;95707.28;;;7.21;100.00
22862;BME280;11598;50.652;6.172;2022-11-15T07:44:31;95711.25;;;7.14;100.00
22862;BME280;11598;50.652;6.172;2022-11-15T07:54:31;95704.09;;;7.17;100.00
22862;BME280;11598;50.652;6.172;2022-11-15T08:04:31;95701.91;;;7.35;99.89
22862;BME280;11598;50.652;6.172;2022-11-15T08:14:32;95696.56;;;7.50;99.08
22862;BME280;11598;50.652;6.172;2022-11-15T08:24:33;95683.56;;;7.62;97.67
22862;BME280;11598;50.652;6.172;2022-11-15T08:34:34;95675.44;;;7.67;96.46
22862;BME280;11598;50.652;6.172;2022-11-15T08:44:35;95666.50;;;7.71;94.96
22862;BME280;11598;50.652;6.172;2022-11-15T08:54:35;95664.41;;;7.76;93.27
22862;BME280;11598;50.652;6.172;2022-11-15T09:04:36;95662.88;;;7.85;92.01
22862;BME280;11598;50.652;6.172;2022-11-15T09:14:36;95638.44;;;8.00;91.25
22862;BME280;11598;50.652;6.172;2022-11-15T09:24:37;95615.88;;;8.02;89.11
22862;BME280;11598;50.652;6.172;2022-11-15T09:34:37;95625.72;;;8.20;87.92
22862;BME280;11598;50.652;6.172;2022-11-15T09:54:47;95600.63;;;8.54;83.58
22862;BME280;11598;50.652;6.172;2022-11-15T10:04:49;95600.34;;;8.57;82.46
22862;BME280;11598;50.652;6.172;2022-11-15T10:15:00;95601.75;;;8.61;81.00
22862;BME280;11598;50.652;6.172;2022-11-15T10:25:24;95587.22;;;8.70;79.18
22862;BME280;11598;50.652;6.172;2022-11-15T10:35:29;95570.66;;;8.73;78.46
22862;BME280;11598;50.652;6.172;2022-11-15T10:45:31;95561.81;;;8.96;77.36
22862;BME280;11598;50.652;6.172;2022-11-15T10:55:33;95538.50;;;9.17;75.49
22862;BME280;11598;50.652;6.172;2022-11-15T11:05:39;95536.34;;;9.22;75.21
22862;BME280;11598;50.652;6.172;2022-11-15T11:15:41;95520.28;;;9.38;76.20
22862;BME280;11598;50.652;6.172;2022-11-15T11:56:57;95444.53;;;9.75;79.02
22862;BME280;11598;50.652;6.172;2022-11-15T12:07:02;95416.28;;;9.82;80.76
22862;BME280;11598;50.652;6.172;2022-11-15T12:17:10;95388.44;;;10.03;80.68
22862;BME280;11598;50.652;6.172;2022-11-15T12:27:24;95383.66;;;9.99;81.32
22862;BME280;11598;50.652;6.172;2022-11-15T12:47:40;95378.63;;;10.16;81.44
22862;BME280;11598;50.652;6.172;2022-11-15T12:57:41;95356.47;;;10.12;81.92
22862;BME280;11598;50.652;6.172;2022-11-15T13:27:45;95286.56;;;10.58;79.42
22862;BME280;11598;50.652;6.172;2022-11-15T13:37:45;95290.25;;;10.55;79.25
22862;BME280;11598;50.652;6.172;2022-11-15T13:47:51;95272.94;;;10.46;79.75
22862;BME280;11598;50.652;6.172;2022-11-15T13:58:01;95250.53;;;10.45;80.22
22862;BME280;11598;50.652;6.172;2022-11-15T14:18:43;95222.47;;;10.58;79.95
22862;BME280;11598;50.652;6.172;2022-11-15T14:28:43;95208.66;;;10.58;79.72
22862;BME280;11598;50.652;6.172;2022-11-15T14:38:44;95188.53;;;10.42;80.32
22862;BME280;11598;50.652;6.172;2022-11-15T14:48:45;95184.63;;;10.28;80.78
22862;BME280;11598;50.652;6.172;2022-11-15T14:58:45;95179.16;;;10.22;80.78
22862;BME280;11598;50.652;6.172;2022-11-15T15:08:46;95174.53;;;10.15;81.68
22862;BME280;11598;50.652;6.172;2022-11-15T15:18:48;95152.25;;;10.13;82.11
22862;BME280;11598;50.652;6.172;2022-11-15T15:28:49;95146.13;;;10.14;81.88
22862;BME280;11598;50.652;6.172;2022-11-15T15:38:51;95138.19;;;10.15;82.61
22862;BME280;11598;50.652;6.172;2022-11-15T15:48:52;95140.28;;;10.12;83.82
22862;BME280;11598;50.652;6.172;2022-11-15T15:58:52;95133.72;;;10.08;84.95
22862;BME280;11598;50.652;6.172;2022-11-15T16:08:53;95134.03;;;10.05;86.08
22862;BME280;11598;50.652;6.172;2022-11-15T16:18:53;95126.53;;;9.92;87.84
22862;BME280;11598;50.652;6.172;2022-11-15T16:28:54;95111.19;;;9.71;90.33
22862;BME280;11598;50.652;6.172;2022-11-15T16:38:54;95109.34;;;9.53;92.85
22862;BME280;11598;50.652;6.172;2022-11-15T16:48:55;95101.88;;;9.41;95.00
22862;BME280;11598;50.652;6.172;2022-11-15T16:58:57;95095.63;;;9.34;97.11
22862;BME280;11598;50.652;6.172;2022-11-15T17:08:58;95091.41;;;9.23;98.92
22862;BME280;11598;50.652;6.172;2022-11-15T17:18:58;95094.41;;;9.18;100.00
22862;BME280;11598;50.652;6.172;2022-11-15T17:28:59;95081.59;;;9.17;100.00
22862;BME280;11598;50.652;6.172;2022-11-15T17:39:01;95076.28;;;9.18;100.00
22862;BME280;11598;50.652;6.172;2022-11-15T17:49:01;95057.84;;;9.21;100.00
22862;BME280;11598;50.652;6.172;2022-11-15T17:59:02;95056.63;;;9.25;100.00
22862;BME280;11598;50.652;6.172;2022-11-15T18:09:03;95051.16;;;9.28;100.00
22862;BME280;11598;50.652;6.172;2022-11-15T18:19:04;95050.88;;;9.31;100.00
22862;BME280;11598;50.652;6.172;2022-11-15T18:29:08;95047.44;;;9.41;100.00
22862;BME280;11598;50.652;6.172;2022-11-15T18:39:09;95036.50;;;9.47;100.00
22862;BME280;11598;50.652;6.172;2022-11-15T18:49:15;95022.06;;;9.44;100.00
22862;BME280;11598;50.652;6.172;2022-11-15T18:59:16;95020.94;;;9.47;100.00
22862;BME280;11598;50.652;6.172;2022-11-15T19:09:17;95019.72;;;9.51;100.00
22862;BME280;11598;50.652;6.172;2022-11-15T19:19:23;95006.44;;;9.54;100.00
22862;BME280;11598;50.652;6.172;2022-11-15T19:29:23;94998.53;;;9.56;100.00
22862;BME280;11598;50.652;6.172;2022-11-15T19:39:24;94992.94;;;9.60;100.00
22862;BME280;11598;50.652;6.172;2022-11-15T19:49:24;94981.44;;;9.63;100.00
22862;BME280;11598;50.652;6.172;2022-11-15T19:59:25;94971.59;;;9.66;100.00
22862;BME280;11598;50.652;6.172;2022-11-15T20:09:25;94955.09;;;9.67;100.00
22862;BME280;11598;50.652;6.172;2022-11-15T20:19:26;94957.53;;;9.69;100.00
22862;BME280;11598;50.652;6.172;2022-11-15T20:29:26;94959.16;;;9.70;100.00
22862;BME280;11598;50.652;6.172;2022-11-15T20:39:27;94955.59;;;9.71;100.00
22862;BME280;11598;50.652;6.172;2022-11-15T20:49:27;94941.69;;;9.72;100.00
22862;BME280;11598;50.652;6.172;2022-11-15T20:59:28;94953.41;;;9.76;100.00
22862;BME280;11598;50.652;6.172;2022-11-15T21:09:28;94946.00;;;9.81;100.00
22862;BME280;11598;50.652;6.172;2022-11-15T21:19:47;94927.66;;;9.83;100.00
22862;BME280;11598;50.652;6.172;2022-11-15T21:29:47;94922.47;;;9.83;100.00
22862;BME280;11598;50.652;6.172;2022-11-15T21:39:48;94898.03;;;9.85;100.00
22862;BME280;11598;50.652;6.172;2022-11-15T21:49:48;94900.41;;;9.79;100.00
22862;BME280;11598;50.652;6.172;2022-11-15T21:59:48;94895.81;;;9.72;100.00
22862;BME280;11598;50.652;6.172;2022-11-15T22:10:07;94885.75;;;9.69;100.00
22862;BME280;11598;50.652;6.172;2022-11-15T22:20:08;94861.88;;;9.66;100.00
22862;BME280;11598;50.652;6.172;2022-11-15T22:30:09;94851.78;;;9.63;100.00
22862;BME280;11598;50.652;6.172;2022-11-15T22:40:10;94833.28;;;9.58;100.00
22862;BME280;11598;50.652;6.172;2022-11-15T22:50:10;94830.97;;;9.55;100.00
22862;BME280;11598;50.652;6.172;2022-11-15T23:00:13;94826.09;;;9.51;100.00
22862;BME280;11598;50.652;6.172;2022-11-15T23:10:13;94825.41;;;9.49;100.00
22862;BME280;11598;50.652;6.172;2022-11-15T23:20:32;94829.13;;;9.47;100.00
22862;BME280;11598;50.652;6.172;2022-11-15T23:30:36;94822.81;;;9.49;100.00
22862;BME280;11598;50.652;6.172;2022-11-15T23:40:55;94817.34;;;9.52;100.00
22862;BME280;11598;50.652;6.172;2022-11-15T23:50:56;94807.00;;;9.52;100.00
